createdAt,value
2022-11-29T00:01:43.752Z,0.60
2022-11-29T00:04:11.356Z,0.59
2022-11-29T00:06:38.400Z,0.66
2022-11-29T00:09:11.468Z,0.65
2022-11-29T00:11:57.770Z,0.60
2022-11-29T00:14:26.630Z,0.60
2022-11-29T00:16:56.372Z,0.56
2022-11-29T00:19:23.008Z,0.56
2022-11-29T00:21:49.588Z,0.57
2022-11-29T00:24:16.342Z,0.58
2022-11-29T00:26:42.972Z,0.52
2022-11-29T00:29:12.388Z,0.58
2022-11-29T00:31:39.551Z,0.56
2022-11-29T00:34:09.127Z,0.59
2022-11-29T00:36:35.862Z,0.57
2022-11-29T00:39:03.924Z,0.55
2022-11-29T00:41:31.019Z,0.53
2022-11-29T00:43:57.571Z,0.54
2022-11-29T00:46:25.298Z,0.57
2022-11-29T00:48:51.965Z,0.62
2022-11-29T00:51:18.505Z,0.63
2022-11-29T00:53:45.247Z,0.57
2022-11-29T00:56:11.906Z,0.56
2022-11-29T00:58:38.431Z,0.59
2022-11-29T01:01:05.498Z,0.56
2022-11-29T01:03:32.424Z,0.59
2022-11-29T01:06:08.028Z,0.63
2022-11-29T01:08:34.964Z,0.58
2022-11-29T01:11:27.917Z,0.56
2022-11-29T01:13:57.715Z,0.54
2022-11-29T01:16:24.766Z,0.54
2022-11-29T01:32:36.153Z,0.66
2022-11-29T19:26:30.155Z,-0.28
2022-11-29T19:28:57.397Z,-0.30
2022-11-29T19:31:25.247Z,-0.28
2022-11-29T19:33:52.815Z,-0.25
2022-11-29T19:36:30.806Z,-0.35
2022-11-29T19:39:00.626Z,-0.27
2022-11-29T19:41:31.366Z,-0.29
2022-11-29T19:44:00.611Z,-0.31
2022-11-29T19:46:30.036Z,-0.28
2022-11-29T19:48:57.944Z,-0.33
2022-11-29T19:51:26.101Z,-0.37
2022-11-29T19:53:57.835Z,-0.34
2022-11-29T19:56:24.800Z,-0.34
2022-11-29T19:58:51.925Z,-0.32
2022-11-29T20:01:36.093Z,-0.31
2022-11-29T20:04:06.303Z,-0.42
2022-11-29T20:06:33.191Z,-0.42
2022-11-29T20:08:59.979Z,-0.42
2022-11-29T20:11:27.010Z,-0.42
2022-11-29T20:13:57.749Z,-0.42
2022-11-29T20:16:25.281Z,-0.44
2022-11-29T20:18:53.119Z,-0.43
2022-11-29T20:21:25.910Z,-0.41
2022-11-29T20:24:19.490Z,-0.36
2022-11-29T20:26:47.753Z,-0.39
2022-11-29T20:29:15.551Z,-0.35
2022-11-29T20:31:49.522Z,-0.32
2022-11-29T20:34:17.168Z,-0.43
2022-11-29T20:36:59.751Z,-0.43
2022-11-29T20:39:30.810Z,-0.41
2022-11-29T20:42:34.159Z,-0.42
2022-11-29T20:45:04.115Z,-0.43
2022-11-29T20:47:44.987Z,-0.42
2022-11-29T20:50:24.086Z,-0.46
2022-11-29T20:53:05.320Z,-0.53
2022-11-29T20:55:32.147Z,-0.51
2022-11-29T20:57:58.693Z,-0.47
2022-11-29T21:00:25.296Z,-0.54
2022-11-29T21:02:51.888Z,-0.54
2022-11-29T21:05:18.401Z,-0.51
2022-11-29T21:07:45.829Z,-0.52
2022-11-29T21:10:14.740Z,-0.45
2022-11-29T21:12:42.687Z,-0.55
2022-11-29T21:15:11.232Z,-0.57
2022-11-29T21:17:38.123Z,-0.54
2022-11-29T21:20:05.544Z,-0.57
2022-11-29T21:22:52.737Z,-0.64
2022-11-29T21:25:43.842Z,-0.68
2022-11-29T21:28:13.200Z,-0.68
2022-11-29T21:30:40.768Z,-0.62
2022-11-29T21:33:08.196Z,-0.59
2022-11-29T21:35:36.571Z,-0.63
2022-11-29T21:38:03.771Z,-0.64
2022-11-29T21:40:30.303Z,-0.61
2022-11-29T21:42:56.877Z,-0.59
2022-11-29T21:45:23.407Z,-0.62
2022-11-29T21:47:50.034Z,-0.58
2022-11-29T21:50:16.687Z,-0.69
2022-11-29T21:52:44.390Z,-0.73
2022-11-29T21:55:11.187Z,-0.68
2022-11-29T21:57:38.772Z,-0.64
2022-11-29T22:00:07.451Z,-0.67
2022-11-29T22:02:34.109Z,-0.66
2022-11-29T22:05:00.765Z,-0.71
2022-11-29T22:07:27.354Z,-0.68
2022-11-29T22:09:53.937Z,-0.66
2022-11-29T22:12:33.906Z,-0.63
2022-11-29T22:15:01.382Z,-0.59
2022-11-29T22:17:27.967Z,-0.59
2022-11-29T22:19:54.662Z,-0.56
2022-11-29T22:22:21.497Z,-0.62
2022-11-29T22:24:48.322Z,-0.64
2022-11-29T22:27:17.682Z,-0.54
2022-11-29T22:29:44.536Z,-0.60
2022-11-29T22:32:11.061Z,-0.65
2022-11-29T22:34:37.620Z,-0.63
2022-11-29T22:37:04.138Z,-0.60
2022-11-29T22:39:30.796Z,-0.62
2022-11-29T22:41:57.340Z,-0.61
2022-11-29T22:44:24.312Z,-0.63
2022-11-29T22:46:51.040Z,-0.60
2022-11-29T22:49:17.612Z,-0.70
2022-11-29T22:51:44.169Z,-0.67
2022-11-29T22:54:11.889Z,-0.66
2022-11-29T22:56:40.618Z,-0.69
2022-11-29T22:59:08.052Z,-0.67
2022-11-29T23:01:37.966Z,-0.71
2022-11-29T23:04:07.300Z,-0.81
2022-11-29T23:06:36.565Z,-0.73
2022-11-29T23:09:06.815Z,-0.76
2022-11-29T23:11:33.375Z,-0.73
2022-11-29T23:13:59.931Z,-0.77
2022-11-29T23:16:28.826Z,-0.71
2022-11-29T23:18:58.206Z,-0.73
2022-11-29T23:21:34.935Z,-0.83
2022-11-29T23:24:01.597Z,-0.82
2022-11-29T23:26:36.345Z,-0.84
2022-11-29T23:29:04.727Z,-0.78
2022-11-29T23:31:31.773Z,-0.73
2022-11-29T23:33:58.356Z,-0.74
2022-11-29T23:36:25.300Z,-0.72
2022-11-29T23:38:51.930Z,-0.78
2022-11-29T23:41:18.449Z,-0.84
2022-11-29T23:43:45.203Z,-0.84
2022-11-29T23:46:23.456Z,-0.76
2022-11-29T23:48:50.627Z,-0.78
2022-11-29T23:51:18.543Z,-0.74
2022-11-29T23:53:46.619Z,-0.87
2022-11-29T23:56:15.647Z,-0.88
2022-11-29T23:58:43.316Z,-0.81
